sensor_id;sensor_type;location;lat;lon;timestamp;P1;durP1;ratioP1;P2;durP2;ratioP2
58017;SDS011;43810;50.860;19.226;2023-03-14T00:02:07;10.98;;;4.70;;
58017;SDS011;43810;50.860;19.226;2023-03-14T00:04:33;10.93;;;4.13;;
58017;SDS011;43810;50.860;19.226;2023-03-14T00:07:00;9.52;;;4.78;;
58017;SDS011;43810;50.860;19.226;2023-03-14T00:09:25;6.70;;;4.25;;
58017;SDS011;43810;50.860;19.226;2023-03-14T00:11:55;9.60;;;4.35;;
58017;SDS011;43810;50.860;19.226;2023-03-14T00:14:22;9.88;;;4.32;;
58017;SDS011;43810;50.860;19.226;2023-03-14T00:16:48;14.15;;;4.75;;
58017;SDS011;43810;50.860;19.226;2023-03-14T00:19:14;6.82;;;4.32;;
58017;SDS011;43810;50.860;19.226;2023-03-14T00:21:40;10.45;;;5.20;;
58017;SDS011;43810;50.860;19.226;2023-03-14T00:24:06;10.07;;;4.13;;
58017;SDS011;43810;50.860;19.226;2023-03-14T00:26:34;12.15;;;5.10;;
58017;SDS011;43810;50.860;19.226;2023-03-14T00:29:00;14.50;;;4.82;;
58017;SDS011;43810;50.860;19.226;2023-03-14T00:31:26;7.80;;;4.80;;
58017;SDS011;43810;50.860;19.226;2023-03-14T00:33:52;13.43;;;4.63;;
58017;SDS011;43810;50.860;19.226;2023-03-14T00:36:18;10.90;;;4.78;;
58017;SDS011;43810;50.860;19.226;2023-03-14T00:38:49;9.93;;;4.53;;
58017;SDS011;43810;50.860;19.226;2023-03-14T00:41:22;9.32;;;5.00;;
58017;SDS011;43810;50.860;19.226;2023-03-14T00:43:49;14.05;;;5.53;;
58017;SDS011;43810;50.860;19.226;2023-03-14T00:46:15;10.32;;;4.68;;
58017;SDS011;43810;50.860;19.226;2023-03-14T00:48:41;11.45;;;4.50;;
58017;SDS011;43810;50.860;19.226;2023-03-14T00:51:08;10.13;;;4.45;;
58017;SDS011;43810;50.860;19.226;2023-03-14T00:53:35;8.90;;;3.92;;
58017;SDS011;43810;50.860;19.226;2023-03-14T00:56:02;10.90;;;4.22;;
58017;SDS011;43810;50.860;19.226;2023-03-14T00:58:29;10.77;;;4.28;;
58017;SDS011;43810;50.860;19.226;2023-03-14T01:00:55;8.93;;;3.53;;
58017;SDS011;43810;50.860;19.226;2023-03-14T01:03:32;8.00;;;4.05;;
58017;SDS011;43810;50.860;19.226;2023-03-14T01:06:08;8.52;;;4.00;;
58017;SDS011;43810;50.860;19.226;2023-03-14T01:08:35;7.07;;;4.38;;
58017;SDS011;43810;50.860;19.226;2023-03-14T01:11:10;7.85;;;3.90;;
58017;SDS011;43810;50.860;19.226;2023-03-14T01:13:49;8.35;;;3.88;;
58017;SDS011;43810;50.860;19.226;2023-03-14T01:16:18;9.05;;;4.78;;
58017;SDS011;43810;50.860;19.226;2023-03-14T01:18:46;15.35;;;4.90;;
58017;SDS011;43810;50.860;19.226;2023-03-14T01:21:13;13.70;;;4.97;;
58017;SDS011;43810;50.860;19.226;2023-03-14T01:23:41;9.13;;;4.85;;
58017;SDS011;43810;50.860;19.226;2023-03-14T01:26:08;7.75;;;4.35;;
58017;SDS011;43810;50.860;19.226;2023-03-14T01:28:35;8.27;;;3.95;;
58017;SDS011;43810;50.860;19.226;2023-03-14T01:31:02;12.45;;;4.43;;
58017;SDS011;43810;50.860;19.226;2023-03-14T01:33:33;6.32;;;3.83;;
58017;SDS011;43810;50.860;19.226;2023-03-14T01:35:59;6.25;;;3.78;;
58017;SDS011;43810;50.860;19.226;2023-03-14T01:38:30;7.10;;;3.63;;
58017;SDS011;43810;50.860;19.226;2023-03-14T01:40:57;8.25;;;3.83;;
58017;SDS011;43810;50.860;19.226;2023-03-14T01:43:23;5.88;;;3.17;;
58017;SDS011;43810;50.860;19.226;2023-03-14T01:51:18;6.28;;;2.88;;
58017;SDS011;43810;50.860;19.226;2023-03-14T01:53:51;7.95;;;3.17;;
58017;SDS011;43810;50.860;19.226;2023-03-14T01:56:23;8.10;;;3.10;;
58017;SDS011;43810;50.860;19.226;2023-03-14T01:58:50;8.13;;;3.00;;
58017;SDS011;43810;50.860;19.226;2023-03-14T02:01:18;8.38;;;3.53;;
58017;SDS011;43810;50.860;19.226;2023-03-14T02:03:48;6.05;;;2.85;;
58017;SDS011;43810;50.860;19.226;2023-03-14T02:06:20;6.90;;;3.03;;
58017;SDS011;43810;50.860;19.226;2023-03-14T02:08:50;6.57;;;3.10;;
58017;SDS011;43810;50.860;19.226;2023-03-14T02:11:17;6.55;;;3.42;;
58017;SDS011;43810;50.860;19.226;2023-03-14T02:13:43;6.63;;;3.28;;
58017;SDS011;43810;50.860;19.226;2023-03-14T02:16:10;5.55;;;3.33;;
58017;SDS011;43810;50.860;19.226;2023-03-14T02:18:37;6.53;;;3.38;;
58017;SDS011;43810;50.860;19.226;2023-03-14T02:26:43;6.22;;;3.15;;
58017;SDS011;43810;50.860;19.226;2023-03-14T02:29:29;6.65;;;3.40;;
58017;SDS011;43810;50.860;19.226;2023-03-14T02:31:59;6.53;;;3.65;;
58017;SDS011;43810;50.860;19.226;2023-03-14T02:34:24;9.32;;;3.75;;
58017;SDS011;43810;50.860;19.226;2023-03-14T02:36:51;9.23;;;3.90;;
58017;SDS011;43810;50.860;19.226;2023-03-14T02:39:20;8.70;;;4.03;;
58017;SDS011;43810;50.860;19.226;2023-03-14T02:41:50;6.80;;;3.55;;
58017;SDS011;43810;50.860;19.226;2023-03-14T02:44:15;8.82;;;4.32;;
58017;SDS011;43810;50.860;19.226;2023-03-14T02:46:41;9.23;;;3.78;;
58017;SDS011;43810;50.860;19.226;2023-03-14T02:49:08;8.65;;;3.92;;
58017;SDS011;43810;50.860;19.226;2023-03-14T02:51:37;12.70;;;4.32;;
58017;SDS011;43810;50.860;19.226;2023-03-14T02:54:05;8.45;;;4.20;;
58017;SDS011;43810;50.860;19.226;2023-03-14T02:56:31;9.45;;;3.75;;
58017;SDS011;43810;50.860;19.226;2023-03-14T02:58:57;10.80;;;4.78;;
58017;SDS011;43810;50.860;19.226;2023-03-14T03:01:23;8.63;;;4.38;;
58017;SDS011;43810;50.860;19.226;2023-03-14T03:03:49;12.60;;;5.05;;
58017;SDS011;43810;50.860;19.226;2023-03-14T03:06:16;9.38;;;4.35;;
58017;SDS011;43810;50.860;19.226;2023-03-14T03:08:41;9.38;;;4.68;;
58017;SDS011;43810;50.860;19.226;2023-03-14T03:11:08;10.77;;;5.28;;
58017;SDS011;43810;50.860;19.226;2023-03-14T03:13:34;12.32;;;5.80;;
58017;SDS011;43810;50.860;19.226;2023-03-14T03:16:00;15.68;;;5.85;;
58017;SDS011;43810;50.860;19.226;2023-03-14T03:18:26;15.23;;;6.30;;
58017;SDS011;43810;50.860;19.226;2023-03-14T03:20:52;10.38;;;5.35;;
58017;SDS011;43810;50.860;19.226;2023-03-14T03:23:18;9.85;;;5.13;;
58017;SDS011;43810;50.860;19.226;2023-03-14T03:25:47;11.07;;;5.55;;
58017;SDS011;43810;50.860;19.226;2023-03-14T03:28:17;11.98;;;5.30;;
58017;SDS011;43810;50.860;19.226;2023-03-14T03:30:43;12.05;;;6.43;;
58017;SDS011;43810;50.860;19.226;2023-03-14T03:33:09;13.15;;;6.68;;
58017;SDS011;43810;50.860;19.226;2023-03-14T03:35:46;14.85;;;6.45;;
58017;SDS011;43810;50.860;19.226;2023-03-14T03:38:13;16.88;;;7.78;;
58017;SDS011;43810;50.860;19.226;2023-03-14T03:40:40;20.48;;;9.82;;
58017;SDS011;43810;50.860;19.226;2023-03-14T03:43:06;26.67;;;11.70;;
58017;SDS011;43810;50.860;19.226;2023-03-14T03:45:32;23.10;;;12.43;;
58017;SDS011;43810;50.860;19.226;2023-03-14T03:47:58;22.42;;;10.52;;
58017;SDS011;43810;50.860;19.226;2023-03-14T03:50:24;21.02;;;8.18;;
58017;SDS011;43810;50.860;19.226;2023-03-14T03:52:49;14.20;;;6.57;;
58017;SDS011;43810;50.860;19.226;2023-03-14T03:55:16;15.75;;;6.28;;
58017;SDS011;43810;50.860;19.226;2023-03-14T03:57:41;14.02;;;6.90;;
58017;SDS011;43810;50.860;19.226;2023-03-14T04:00:07;15.88;;;6.65;;
58017;SDS011;43810;50.860;19.226;2023-03-14T04:02:37;18.63;;;7.30;;
58017;SDS011;43810;50.860;19.226;2023-03-14T04:05:03;19.42;;;7.28;;
58017;SDS011;43810;50.860;19.226;2023-03-14T04:07:33;27.33;;;9.10;;
58017;SDS011;43810;50.860;19.226;2023-03-14T04:09:59;25.90;;;9.38;;
58017;SDS011;43810;50.860;19.226;2023-03-14T04:12:25;24.38;;;8.98;;
58017;SDS011;43810;50.860;19.226;2023-03-14T04:14:51;23.77;;;10.07;;
58017;SDS011;43810;50.860;19.226;2023-03-14T04:17:17;26.45;;;9.75;;
58017;SDS011;43810;50.860;19.226;2023-03-14T04:19:43;27.77;;;9.93;;
58017;SDS011;43810;50.860;19.226;2023-03-14T04:22:08;20.90;;;7.72;;
58017;SDS011;43810;50.860;19.226;2023-03-14T04:24:34;19.42;;;7.88;;
58017;SDS011;43810;50.860;19.226;2023-03-14T04:27:00;18.77;;;8.50;;
58017;SDS011;43810;50.860;19.226;2023-03-14T04:29:26;29.02;;;8.88;;
58017;SDS011;43810;50.860;19.226;2023-03-14T04:31:52;19.60;;;8.38;;
58017;SDS011;43810;50.860;19.226;2023-03-14T04:34:18;27.40;;;8.10;;
58017;SDS011;43810;50.860;19.226;2023-03-14T04:36:43;16.50;;;7.38;;
58017;SDS011;43810;50.860;19.226;2023-03-14T04:39:10;23.92;;;8.35;;
58017;SDS011;43810;50.860;19.226;2023-03-14T04:41:35;13.10;;;6.18;;
58017;SDS011;43810;50.860;19.226;2023-03-14T04:44:01;15.75;;;6.20;;
58017;SDS011;43810;50.860;19.226;2023-03-14T04:46:27;14.02;;;6.28;;
58017;SDS011;43810;50.860;19.226;2023-03-14T04:48:53;14.88;;;6.28;;
58017;SDS011;43810;50.860;19.226;2023-03-14T04:51:23;15.80;;;6.05;;
58017;SDS011;43810;50.860;19.226;2023-03-14T04:53:53;16.20;;;6.60;;
58017;SDS011;43810;50.860;19.226;2023-03-14T04:56:20;16.13;;;5.97;;
58017;SDS011;43810;50.860;19.226;2023-03-14T04:58:47;15.70;;;7.00;;
58017;SDS011;43810;50.860;19.226;2023-03-14T05:01:13;15.50;;;7.15;;
58017;SDS011;43810;50.860;19.226;2023-03-14T05:03:39;17.75;;;7.88;;
58017;SDS011;43810;50.860;19.226;2023-03-14T05:06:05;17.00;;;7.80;;
58017;SDS011;43810;50.860;19.226;2023-03-14T05:08:31;15.88;;;7.70;;
58017;SDS011;43810;50.860;19.226;2023-03-14T05:10:57;16.20;;;6.78;;
58017;SDS011;43810;50.860;19.226;2023-03-14T05:13:24;15.82;;;6.75;;
58017;SDS011;43810;50.860;19.226;2023-03-14T05:15:50;17.80;;;7.60;;
58017;SDS011;43810;50.860;19.226;2023-03-14T05:18:17;21.23;;;8.82;;
58017;SDS011;43810;50.860;19.226;2023-03-14T05:20:43;16.35;;;7.28;;
58017;SDS011;43810;50.860;19.226;2023-03-14T05:23:09;14.57;;;7.20;;
58017;SDS011;43810;50.860;19.226;2023-03-14T05:25:35;17.08;;;8.20;;
58017;SDS011;43810;50.860;19.226;2023-03-14T05:28:01;18.45;;;7.40;;
58017;SDS011;43810;50.860;19.226;2023-03-14T05:30:27;16.15;;;7.53;;
58017;SDS011;43810;50.860;19.226;2023-03-14T05:32:53;13.90;;;7.55;;
58017;SDS011;43810;50.860;19.226;2023-03-14T05:35:19;21.20;;;8.43;;
58017;SDS011;43810;50.860;19.226;2023-03-14T05:37:45;14.23;;;7.95;;
58017;SDS011;43810;50.860;19.226;2023-03-14T05:40:11;14.73;;;7.13;;
58017;SDS011;43810;50.860;19.226;2023-03-14T05:42:37;11.93;;;6.78;;
58017;SDS011;43810;50.860;19.226;2023-03-14T05:45:03;14.77;;;7.32;;
58017;SDS011;43810;50.860;19.226;2023-03-14T05:47:30;20.38;;;7.28;;
58017;SDS011;43810;50.860;19.226;2023-03-14T05:49:55;15.40;;;7.72;;
58017;SDS011;43810;50.860;19.226;2023-03-14T05:52:21;15.65;;;7.55;;
58017;SDS011;43810;50.860;19.226;2023-03-14T05:54:47;10.63;;;6.22;;
58017;SDS011;43810;50.860;19.226;2023-03-14T05:57:14;13.18;;;5.85;;
58017;SDS011;43810;50.860;19.226;2023-03-14T05:59:39;13.20;;;6.20;;
58017;SDS011;43810;50.860;19.226;2023-03-14T06:02:06;15.57;;;5.53;;
58017;SDS011;43810;50.860;19.226;2023-03-14T06:04:31;16.55;;;7.28;;
58017;SDS011;43810;50.860;19.226;2023-03-14T06:06:57;12.95;;;5.18;;
58017;SDS011;43810;50.860;19.226;2023-03-14T06:09:23;11.73;;;5.55;;
58017;SDS011;43810;50.860;19.226;2023-03-14T06:11:49;15.95;;;5.30;;
58017;SDS011;43810;50.860;19.226;2023-03-14T06:14:16;12.35;;;5.32;;
58017;SDS011;43810;50.860;19.226;2023-03-14T06:16:43;12.73;;;5.72;;
58017;SDS011;43810;50.860;19.226;2023-03-14T06:19:08;13.45;;;5.80;;
58017;SDS011;43810;50.860;19.226;2023-03-14T06:21:34;12.15;;;5.43;;
58017;SDS011;43810;50.860;19.226;2023-03-14T06:24:01;9.70;;;5.30;;
58017;SDS011;43810;50.860;19.226;2023-03-14T06:26:27;11.63;;;5.88;;
58017;SDS011;43810;50.860;19.226;2023-03-14T06:28:53;12.90;;;6.30;;
58017;SDS011;43810;50.860;19.226;2023-03-14T06:31:20;11.40;;;6.00;;
58017;SDS011;43810;50.860;19.226;2023-03-14T06:33:45;13.13;;;6.00;;
58017;SDS011;43810;50.860;19.226;2023-03-14T06:36:11;13.65;;;6.07;;
58017;SDS011;43810;50.860;19.226;2023-03-14T06:38:37;14.88;;;6.45;;
58017;SDS011;43810;50.860;19.226;2023-03-14T06:41:04;12.30;;;6.38;;
58017;SDS011;43810;50.860;19.226;2023-03-14T06:43:30;12.10;;;6.15;;
58017;SDS011;43810;50.860;19.226;2023-03-14T06:45:56;11.10;;;6.70;;
58017;SDS011;43810;50.860;19.226;2023-03-14T06:48:22;14.30;;;6.63;;
58017;SDS011;43810;50.860;19.226;2023-03-14T06:50:48;17.58;;;7.22;;
58017;SDS011;43810;50.860;19.226;2023-03-14T06:53:14;17.55;;;7.93;;
58017;SDS011;43810;50.860;19.226;2023-03-14T06:55:40;24.30;;;9.73;;
58017;SDS011;43810;50.860;19.226;2023-03-14T06:58:06;24.35;;;9.75;;
58017;SDS011;43810;50.860;19.226;2023-03-14T07:00:34;22.50;;;10.38;;
58017;SDS011;43810;50.860;19.226;2023-03-14T07:02:59;21.42;;;8.43;;
58017;SDS011;43810;50.860;19.226;2023-03-14T07:05:25;18.90;;;7.53;;
58017;SDS011;43810;50.860;19.226;2023-03-14T07:07:51;17.05;;;7.38;;
58017;SDS011;43810;50.860;19.226;2023-03-14T07:10:17;12.80;;;6.60;;
58017;SDS011;43810;50.860;19.226;2023-03-14T07:12:43;13.40;;;5.88;;
58017;SDS011;43810;50.860;19.226;2023-03-14T07:15:09;14.95;;;5.75;;
58017;SDS011;43810;50.860;19.226;2023-03-14T07:17:35;14.90;;;5.95;;
58017;SDS011;43810;50.860;19.226;2023-03-14T07:20:01;12.13;;;5.35;;
58017;SDS011;43810;50.860;19.226;2023-03-14T07:22:29;13.43;;;5.50;;
58017;SDS011;43810;50.860;19.226;2023-03-14T07:24:55;12.20;;;5.18;;
58017;SDS011;43810;50.860;19.226;2023-03-14T07:27:21;11.52;;;5.30;;
58017;SDS011;43810;50.860;19.226;2023-03-14T07:29:47;11.02;;;5.03;;
58017;SDS011;43810;50.860;19.226;2023-03-14T07:32:13;9.93;;;5.13;;
58017;SDS011;43810;50.860;19.226;2023-03-14T07:34:40;11.98;;;5.35;;
58017;SDS011;43810;50.860;19.226;2023-03-14T07:37:07;13.63;;;5.53;;
58017;SDS011;43810;50.860;19.226;2023-03-14T07:39:33;14.25;;;5.40;;
58017;SDS011;43810;50.860;19.226;2023-03-14T07:41:59;11.05;;;4.97;;
58017;SDS011;43810;50.860;19.226;2023-03-14T07:44:25;13.88;;;7.60;;
58017;SDS011;43810;50.860;19.226;2023-03-14T07:46:52;21.20;;;8.55;;
58017;SDS011;43810;50.860;19.226;2023-03-14T07:49:18;17.38;;;7.90;;
58017;SDS011;43810;50.860;19.226;2023-03-14T07:51:46;18.38;;;7.47;;
58017;SDS011;43810;50.860;19.226;2023-03-14T07:54:14;14.18;;;6.15;;
58017;SDS011;43810;50.860;19.226;2023-03-14T07:56:40;12.52;;;5.43;;
58017;SDS011;43810;50.860;19.226;2023-03-14T07:59:06;13.20;;;5.65;;
58017;SDS011;43810;50.860;19.226;2023-03-14T08:01:32;9.77;;;4.70;;
58017;SDS011;43810;50.860;19.226;2023-03-14T08:03:58;9.27;;;5.00;;
58017;SDS011;43810;50.860;19.226;2023-03-14T08:06:24;7.80;;;4.00;;
58017;SDS011;43810;50.860;19.226;2023-03-14T08:08:50;10.57;;;3.90;;
58017;SDS011;43810;50.860;19.226;2023-03-14T08:11:15;6.68;;;3.88;;
58017;SDS011;43810;50.860;19.226;2023-03-14T08:13:41;7.65;;;3.60;;
58017;SDS011;43810;50.860;19.226;2023-03-14T08:16:07;10.48;;;4.20;;
58017;SDS011;43810;50.860;19.226;2023-03-14T08:18:34;9.82;;;4.55;;
58017;SDS011;43810;50.860;19.226;2023-03-14T08:21:00;7.47;;;3.75;;
58017;SDS011;43810;50.860;19.226;2023-03-14T08:23:26;8.63;;;3.75;;
58017;SDS011;43810;50.860;19.226;2023-03-14T08:25:52;10.48;;;4.57;;
58017;SDS011;43810;50.860;19.226;2023-03-14T08:28:18;6.25;;;3.53;;
58017;SDS011;43810;50.860;19.226;2023-03-14T08:30:44;7.10;;;3.88;;
58017;SDS011;43810;50.860;19.226;2023-03-14T08:33:10;7.50;;;3.60;;
58017;SDS011;43810;50.860;19.226;2023-03-14T08:35:37;8.52;;;3.85;;
58017;SDS011;43810;50.860;19.226;2023-03-14T08:38:04;6.30;;;2.90;;
58017;SDS011;43810;50.860;19.226;2023-03-14T08:40:30;6.07;;;3.25;;
58017;SDS011;43810;50.860;19.226;2023-03-14T08:42:56;8.15;;;2.95;;
58017;SDS011;43810;50.860;19.226;2023-03-14T08:45:21;7.53;;;3.05;;
58017;SDS011;43810;50.860;19.226;2023-03-14T08:47:49;5.30;;;2.88;;
58017;SDS011;43810;50.860;19.226;2023-03-14T08:52:40;7.43;;;3.22;;
58017;SDS011;43810;50.860;19.226;2023-03-14T08:55:07;9.68;;;3.20;;
58017;SDS011;43810;50.860;19.226;2023-03-14T08:57:35;7.75;;;3.33;;
58017;SDS011;43810;50.860;19.226;2023-03-14T09:00:01;7.70;;;3.03;;
58017;SDS011;43810;50.860;19.226;2023-03-14T09:02:30;6.05;;;2.60;;
58017;SDS011;43810;50.860;19.226;2023-03-14T09:04:56;7.13;;;3.70;;
58017;SDS011;43810;50.860;19.226;2023-03-14T09:07:22;8.57;;;3.03;;
58017;SDS011;43810;50.860;19.226;2023-03-14T09:09:48;6.28;;;3.22;;
58017;SDS011;43810;50.860;19.226;2023-03-14T09:12:14;4.85;;;3.22;;
58017;SDS011;43810;50.860;19.226;2023-03-14T09:14:40;5.45;;;3.17;;
58017;SDS011;43810;50.860;19.226;2023-03-14T09:17:06;7.20;;;2.85;;
58017;SDS011;43810;50.860;19.226;2023-03-14T09:19:32;7.70;;;3.70;;
58017;SDS011;43810;50.860;19.226;2023-03-14T09:21:58;10.45;;;3.55;;
58017;SDS011;43810;50.860;19.226;2023-03-14T09:24:23;9.25;;;3.53;;
58017;SDS011;43810;50.860;19.226;2023-03-14T09:26:49;6.50;;;3.65;;
58017;SDS011;43810;50.860;19.226;2023-03-14T09:29:15;6.68;;;3.28;;
58017;SDS011;43810;50.860;19.226;2023-03-14T09:31:41;6.32;;;3.28;;
58017;SDS011;43810;50.860;19.226;2023-03-14T09:34:07;7.38;;;3.50;;
58017;SDS011;43810;50.860;19.226;2023-03-14T09:36:32;7.22;;;3.70;;
58017;SDS011;43810;50.860;19.226;2023-03-14T09:38:58;6.18;;;3.33;;
58017;SDS011;43810;50.860;19.226;2023-03-14T09:41:26;6.45;;;3.15;;
58017;SDS011;43810;50.860;19.226;2023-03-14T09:44:19;9.82;;;3.58;;
58017;SDS011;43810;50.860;19.226;2023-03-14T09:47:09;5.43;;;3.20;;
58017;SDS011;43810;50.860;19.226;2023-03-14T09:49:39;7.43;;;3.25;;
58017;SDS011;43810;50.860;19.226;2023-03-14T09:52:10;9.80;;;3.67;;
58017;SDS011;43810;50.860;19.226;2023-03-14T09:54:47;6.63;;;3.30;;
58017;SDS011;43810;50.860;19.226;2023-03-14T09:57:19;7.20;;;3.78;;
58017;SDS011;43810;50.860;19.226;2023-03-14T09:59:48;8.18;;;3.30;;
58017;SDS011;43810;50.860;19.226;2023-03-14T10:02:22;5.82;;;3.35;;
58017;SDS011;43810;50.860;19.226;2023-03-14T10:04:51;6.47;;;3.20;;
58017;SDS011;43810;50.860;19.226;2023-03-14T10:07:21;6.65;;;4.35;;
58017;SDS011;43810;50.860;19.226;2023-03-14T10:09:52;6.28;;;2.90;;
58017;SDS011;43810;50.860;19.226;2023-03-14T10:12:18;5.53;;;2.72;;
58017;SDS011;43810;50.860;19.226;2023-03-14T10:14:49;7.07;;;2.88;;
58017;SDS011;43810;50.860;19.226;2023-03-14T10:17:18;8.38;;;3.28;;
58017;SDS011;43810;50.860;19.226;2023-03-14T10:19:57;7.35;;;3.00;;
58017;SDS011;43810;50.860;19.226;2023-03-14T10:22:26;4.70;;;2.90;;
58017;SDS011;43810;50.860;19.226;2023-03-14T10:24:56;6.32;;;3.00;;
58017;SDS011;43810;50.860;19.226;2023-03-14T10:27:32;9.82;;;3.33;;
58017;SDS011;43810;50.860;19.226;2023-03-14T10:30:00;6.43;;;2.90;;
58017;SDS011;43810;50.860;19.226;2023-03-14T10:32:34;8.57;;;3.83;;
58017;SDS011;43810;50.860;19.226;2023-03-14T10:35:11;6.90;;;3.20;;
58017;SDS011;43810;50.860;19.226;2023-03-14T10:38:01;6.22;;;3.42;;
58017;SDS011;43810;50.860;19.226;2023-03-14T10:40:30;5.47;;;2.92;;
58017;SDS011;43810;50.860;19.226;2023-03-14T10:42:58;6.70;;;3.30;;
58017;SDS011;43810;50.860;19.226;2023-03-14T10:47:51;5.47;;;3.17;;
58017;SDS011;43810;50.860;19.226;2023-03-14T10:52:51;6.35;;;2.72;;
58017;SDS011;43810;50.860;19.226;2023-03-14T10:55:17;10.10;;;2.95;;
58017;SDS011;43810;50.860;19.226;2023-03-14T10:57:44;6.47;;;3.28;;
58017;SDS011;43810;50.860;19.226;2023-03-14T11:00:14;7.65;;;3.58;;
58017;SDS011;43810;50.860;19.226;2023-03-14T11:05:29;6.40;;;3.63;;
58017;SDS011;43810;50.860;19.226;2023-03-14T11:08:11;6.82;;;3.35;;
58017;SDS011;43810;50.860;19.226;2023-03-14T11:11:05;8.75;;;3.67;;
58017;SDS011;43810;50.860;19.226;2023-03-14T11:16:34;10.23;;;4.10;;
58017;SDS011;43810;50.860;19.226;2023-03-14T11:22:13;6.90;;;3.60;;
58017;SDS011;43810;50.860;19.226;2023-03-14T11:24:59;6.90;;;3.47;;
58017;SDS011;43810;50.860;19.226;2023-03-14T11:30:17;6.45;;;3.83;;
58017;SDS011;43810;50.860;19.226;2023-03-14T11:35:38;8.98;;;4.43;;
58017;SDS011;43810;50.860;19.226;2023-03-14T11:38:13;6.20;;;3.67;;
58017;SDS011;43810;50.860;19.226;2023-03-14T11:40:51;6.35;;;3.92;;
58017;SDS011;43810;50.860;19.226;2023-03-14T11:43:37;8.15;;;4.55;;
58017;SDS011;43810;50.860;19.226;2023-03-14T11:46:09;11.35;;;4.80;;
58017;SDS011;43810;50.860;19.226;2023-03-14T11:51:28;13.30;;;5.13;;
58017;SDS011;43810;50.860;19.226;2023-03-14T11:56:58;8.02;;;4.85;;
58017;SDS011;43810;50.860;19.226;2023-03-14T12:02:03;14.98;;;5.75;;
58017;SDS011;43810;50.860;19.226;2023-03-14T12:07:42;15.93;;;7.85;;
58017;SDS011;43810;50.860;19.226;2023-03-14T12:10:29;11.23;;;5.40;;
58017;SDS011;43810;50.860;19.226;2023-03-14T12:13:01;7.85;;;4.68;;
58017;SDS011;43810;50.860;19.226;2023-03-14T12:15:27;9.73;;;4.95;;
58017;SDS011;43810;50.860;19.226;2023-03-14T12:17:54;8.68;;;4.78;;
58017;SDS011;43810;50.860;19.226;2023-03-14T12:20:21;7.90;;;5.30;;
58017;SDS011;43810;50.860;19.226;2023-03-14T12:22:50;12.75;;;5.10;;
58017;SDS011;43810;50.860;19.226;2023-03-14T12:25:19;12.70;;;5.88;;
58017;SDS011;43810;50.860;19.226;2023-03-14T12:30:29;11.73;;;5.00;;
58017;SDS011;43810;50.860;19.226;2023-03-14T12:38:40;10.55;;;5.35;;
58017;SDS011;43810;50.860;19.226;2023-03-14T12:43:34;10.80;;;5.78;;
58017;SDS011;43810;50.860;19.226;2023-03-14T12:46:07;10.38;;;5.93;;
58017;SDS011;43810;50.860;19.226;2023-03-14T12:49:04;15.07;;;5.93;;
58017;SDS011;43810;50.860;19.226;2023-03-14T12:51:37;11.40;;;5.80;;
58017;SDS011;43810;50.860;19.226;2023-03-14T12:54:14;9.45;;;5.15;;
58017;SDS011;43810;50.860;19.226;2023-03-14T12:56:58;10.55;;;5.57;;
58017;SDS011;43810;50.860;19.226;2023-03-14T12:59:33;10.77;;;5.53;;
58017;SDS011;43810;50.860;19.226;2023-03-14T13:10:03;11.48;;;5.50;;
58017;SDS011;43810;50.860;19.226;2023-03-14T13:12:40;8.90;;;5.22;;
58017;SDS011;43810;50.860;19.226;2023-03-14T13:17:50;12.38;;;5.78;;
58017;SDS011;43810;50.860;19.226;2023-03-14T13:20:34;8.55;;;4.82;;
58017;SDS011;43810;50.860;19.226;2023-03-14T13:23:03;11.63;;;5.47;;
58017;SDS011;43810;50.860;19.226;2023-03-14T13:25:30;12.82;;;6.00;;
58017;SDS011;43810;50.860;19.226;2023-03-14T13:27:58;12.68;;;6.72;;
58017;SDS011;43810;50.860;19.226;2023-03-14T13:30:28;13.98;;;5.78;;
58017;SDS011;43810;50.860;19.226;2023-03-14T13:33:02;13.02;;;5.93;;
58017;SDS011;43810;50.860;19.226;2023-03-14T13:35:37;10.95;;;5.78;;
58017;SDS011;43810;50.860;19.226;2023-03-14T13:38:13;10.32;;;5.28;;
58017;SDS011;43810;50.860;19.226;2023-03-14T13:40:43;10.30;;;5.10;;
58017;SDS011;43810;50.860;19.226;2023-03-14T13:43:13;9.63;;;5.22;;
58017;SDS011;43810;50.860;19.226;2023-03-14T13:45:47;8.70;;;5.32;;
58017;SDS011;43810;50.860;19.226;2023-03-14T13:48:32;10.40;;;4.32;;
58017;SDS011;43810;50.860;19.226;2023-03-14T13:51:03;10.60;;;4.75;;
58017;SDS011;43810;50.860;19.226;2023-03-14T13:53:31;9.98;;;4.93;;
58017;SDS011;43810;50.860;19.226;2023-03-14T13:56:01;9.50;;;4.78;;
58017;SDS011;43810;50.860;19.226;2023-03-14T13:58:29;11.30;;;5.55;;
58017;SDS011;43810;50.860;19.226;2023-03-14T14:00:58;7.88;;;5.22;;
58017;SDS011;43810;50.860;19.226;2023-03-14T14:03:27;10.32;;;4.82;;
58017;SDS011;43810;50.860;19.226;2023-03-14T14:05:56;10.40;;;5.05;;
58017;SDS011;43810;50.860;19.226;2023-03-14T14:08:23;9.95;;;5.35;;
58017;SDS011;43810;50.860;19.226;2023-03-14T14:10:50;9.75;;;5.28;;
58017;SDS011;43810;50.860;19.226;2023-03-14T14:13:22;8.48;;;4.97;;
58017;SDS011;43810;50.860;19.226;2023-03-14T14:15:51;7.93;;;4.78;;
58017;SDS011;43810;50.860;19.226;2023-03-14T14:18:20;8.32;;;5.20;;
58017;SDS011;43810;50.860;19.226;2023-03-14T14:20:51;8.30;;;4.88;;
58017;SDS011;43810;50.860;19.226;2023-03-14T14:23:24;8.52;;;5.10;;
58017;SDS011;43810;50.860;19.226;2023-03-14T14:25:54;10.70;;;5.03;;
58017;SDS011;43810;50.860;19.226;2023-03-14T14:28:24;7.88;;;5.18;;
58017;SDS011;43810;50.860;19.226;2023-03-14T14:31:03;8.35;;;4.80;;
58017;SDS011;43810;50.860;19.226;2023-03-14T14:33:40;9.65;;;5.25;;
58017;SDS011;43810;50.860;19.226;2023-03-14T14:39:23;10.57;;;5.50;;
58017;SDS011;43810;50.860;19.226;2023-03-14T14:41:51;9.70;;;4.63;;
58017;SDS011;43810;50.860;19.226;2023-03-14T14:44:21;10.07;;;4.82;;
58017;SDS011;43810;50.860;19.226;2023-03-14T14:46:55;13.63;;;5.45;;
58017;SDS011;43810;50.860;19.226;2023-03-14T14:49:22;10.95;;;6.00;;
58017;SDS011;43810;50.860;19.226;2023-03-14T14:51:59;9.77;;;4.90;;
58017;SDS011;43810;50.860;19.226;2023-03-14T14:54:34;10.70;;;5.40;;
58017;SDS011;43810;50.860;19.226;2023-03-14T14:57:04;24.60;;;10.98;;
58017;SDS011;43810;50.860;19.226;2023-03-14T14:59:31;12.27;;;7.05;;
58017;SDS011;43810;50.860;19.226;2023-03-14T15:01:58;14.77;;;6.65;;
58017;SDS011;43810;50.860;19.226;2023-03-14T15:04:26;13.07;;;5.88;;
58017;SDS011;43810;50.860;19.226;2023-03-14T15:06:55;20.95;;;7.60;;
58017;SDS011;43810;50.860;19.226;2023-03-14T15:09:21;13.18;;;6.80;;
58017;SDS011;43810;50.860;19.226;2023-03-14T15:11:47;14.70;;;6.35;;
58017;SDS011;43810;50.860;19.226;2023-03-14T15:14:14;12.15;;;6.35;;
58017;SDS011;43810;50.860;19.226;2023-03-14T15:16:40;14.30;;;6.45;;
58017;SDS011;43810;50.860;19.226;2023-03-14T15:19:19;13.15;;;6.65;;
58017;SDS011;43810;50.860;19.226;2023-03-14T15:21:46;9.10;;;5.35;;
58017;SDS011;43810;50.860;19.226;2023-03-14T15:24:12;10.75;;;6.13;;
58017;SDS011;43810;50.860;19.226;2023-03-14T15:26:38;10.15;;;5.95;;
58017;SDS011;43810;50.860;19.226;2023-03-14T15:29:04;11.32;;;6.53;;
58017;SDS011;43810;50.860;19.226;2023-03-14T15:31:33;9.02;;;4.93;;
58017;SDS011;43810;50.860;19.226;2023-03-14T15:34:01;9.48;;;4.32;;
58017;SDS011;43810;50.860;19.226;2023-03-14T15:36:28;9.63;;;4.82;;
58017;SDS011;43810;50.860;19.226;2023-03-14T15:38:59;9.75;;;5.05;;
58017;SDS011;43810;50.860;19.226;2023-03-14T15:41:26;11.63;;;5.53;;
58017;SDS011;43810;50.860;19.226;2023-03-14T15:43:53;8.20;;;5.03;;
58017;SDS011;43810;50.860;19.226;2023-03-14T15:46:19;8.25;;;4.70;;